Time,TemperatureF,DewpointF,PressureIn,WindDirection,WindDirectionDegrees,WindSpeedMPH,WindSpeedGustMPH,Humidity,HourlyPrecipIn,Conditions,Clouds,dailyrainin,SoftwareType,DateUTC
2013-05-25 00:00:00,51.6,38.2,30.33,NNW,338,0.0,0.0,60,0.00,,---,0.00,VWS V14.00,2013-05-25 04:00:00,
2013-05-25 12:50:00,64.4,42.6,30.33,SSW,202,3.6,3.6,45,0.00,,---,0.00,VWS V14.00,2013-05-25 16:50:00,
2013-05-25 12:51:00,64.6,42.8,30.33,WSW,248,0.0,2.0,45,0.00,,---,0.00,VWS V14.00,2013-05-25 16:51:00,
2013-05-25 12:56:00,64.4,42.0,30.33,North,0,1.6,4.0,44,0.00,,---,0.00,VWS V14.00,2013-05-25 16:56:00,
2013-05-25 13:01:00,64.4,40.8,30.33,North,0,2.0,2.0,42,0.00,,---,0.00,VWS V14.00,2013-05-25 17:01:00,
2013-05-25 13:06:00,64.4,40.2,30.33,North,0,0.0,0.0,41,0.00,,---,0.00,VWS V14.00,2013-05-25 17:06:00,
2013-05-25 13:11:00,64.6,39.1,30.33,West,270,0.0,0.0,39,0.00,,---,0.00,VWS V14.00,2013-05-25 17:11:00,
2013-05-25 13:16:00,65.3,40.4,30.33,NNE,22,1.1,1.1,40,0.00,,---,0.00,VWS V14.00,2013-05-25 17:16:00,
2013-05-25 13:21:00,65.7,40.7,30.33,West,270,0.0,0.0,40,0.00,,---,0.00,VWS V14.00,2013-05-25 17:21:00,
2013-05-25 13:27:00,65.7,39.4,30.33,North,0,0.0,1.1,38,0.00,,---,0.00,VWS V14.00,2013-05-25 17:27:00,
2013-05-25 13:32:00,65.5,39.2,30.33,WSW,248,0.0,1.1,38,0.00,,---,0.00,VWS V14.00,2013-05-25 17:32:00,
2013-05-25 13:37:00,65.8,38.9,30.33,SSW,202,1.1,1.1,37,0.00,,---,0.00,VWS V14.00,2013-05-25 17:37:00,
2013-05-25 13:42:00,66.4,40.0,30.33,WSW,248,1.1,2.7,38,0.00,,---,0.00,VWS V14.00,2013-05-25 17:42:00,
2013-05-25 13:47:00,66.2,39.2,30.33,West,270,2.7,2.7,37,0.00,,---,0.00,VWS V14.00,2013-05-25 17:47:00,
2013-05-25 13:52:00,66.6,38.8,30.33,West,270,0.0,1.6,36,0.00,,---,0.00,VWS V14.00,2013-05-25 17:52:00,
2013-05-25 13:57:00,66.9,39.1,30.33,North,0,1.6,1.6,36,0.00,,---,0.00,VWS V14.00,2013-05-25 17:57:00,
2013-05-25 14:02:00,66.7,39.0,30.30,NW,315,1.1,2.9,36,0.00,,---,0.00,VWS V14.00,2013-05-25 18:02:00,
2013-05-25 14:07:00,67.1,40.0,30.30,SSW,202,1.6,2.7,37,0.00,,---,0.00,VWS V14.00,2013-05-25 18:07:00,
2013-05-25 14:12:00,68.4,41.1,30.30,SSE,158,2.9,4.9,37,0.00,,---,0.00,VWS V14.00,2013-05-25 18:12:00,
2013-05-25 14:17:00,67.6,39.0,30.30,North,0,1.3,2.5,35,0.00,,---,0.00,VWS V14.00,2013-05-25 18:17:00,
2013-05-25 14:22:00,67.8,39.9,30.30,SSE,158,1.1,2.9,36,0.00,,---,0.00,VWS V14.00,2013-05-25 18:22:00,
2013-05-25 14:27:00,68.2,39.5,30.30,NW,315,1.3,1.3,35,0.00,,---,0.00,VWS V14.00,2013-05-25 18:27:00,
2013-05-25 14:32:00,67.6,39.0,30.30,West,270,1.6,1.6,35,0.00,,---,0.00,VWS V14.00,2013-05-25 18:32:00,
2013-05-25 14:37:00,68.0,39.3,30.30,West,270,1.1,1.3,35,0.00,,---,0.00,VWS V14.00,2013-05-25 18:37:00,
2013-05-25 14:43:00,67.3,38.0,30.30,NNE,22,2.5,2.5,34,0.00,,---,0.00,VWS V14.00,2013-05-25 18:43:00,
2013-05-25 14:48:00,66.4,37.9,30.30,West,270,1.3,2.7,35,0.00,,---,0.00,VWS V14.00,2013-05-25 18:48:00,
2013-05-25 14:53:00,66.4,37.9,30.30,NE,45,1.1,2.7,35,0.00,,---,0.00,VWS V14.00,2013-05-25 18:53:00,
2013-05-25 14:58:00,66.6,38.1,30.27,ENE,68,1.1,2.5,35,0.00,,---,0.00,VWS V14.00,2013-05-25 18:58:00,
2013-05-25 15:03:00,66.7,39.0,30.27,WSW,248,2.5,2.5,36,0.00,,---,0.00,VWS V14.00,2013-05-25 19:03:00,
2013-05-25 15:08:00,66.6,38.1,30.27,NNE,22,1.6,1.6,35,0.00,,---,0.00,VWS V14.00,2013-05-25 19:08:00,
2013-05-25 15:13:00,65.8,36.7,30.30,East,90,1.6,2.0,34,0.00,,---,0.00,VWS V14.00,2013-05-25 19:13:00,
2013-05-25 15:18:00,66.2,37.0,30.30,NNE,22,1.1,1.1,34,0.00,,---,0.00,VWS V14.00,2013-05-25 19:18:00,
2013-05-25 15:23:00,66.4,37.2,30.30,WNW,292,1.1,1.3,34,0.00,,---,0.00,VWS V14.00,2013-05-25 19:23:00,
2013-05-25 15:28:00,65.8,37.5,30.30,NNE,22,2.5,2.5,35,0.00,,---,0.00,VWS V14.00,2013-05-25 19:28:00,
2013-05-25 15:34:00,65.7,37.3,30.30,West,270,1.1,3.1,35,0.00,,---,0.00,VWS V14.00,2013-05-25 19:34:00,
2013-05-25 15:39:00,65.5,37.1,30.30,North,0,1.6,2.0,35,0.00,,---,0.00,VWS V14.00,2013-05-25 19:39:00,
2013-05-25 15:44:00,65.5,37.1,30.30,ENE,68,1.6,1.6,35,0.00,,---,0.00,VWS V14.00,2013-05-25 19:44:00,
2013-05-25 15:49:00,65.3,37.0,30.30,West,270,0.0,0.0,35,0.00,,---,0.00,VWS V14.00,2013-05-25 19:49:00,
2013-05-25 15:54:00,65.8,37.5,30.30,WNW,292,2.7,2.9,35,0.00,,---,0.00,VWS V14.00,2013-05-25 19:54:00,
2013-05-25 15:59:00,66.6,38.1,30.30,NE,45,0.9,1.1,35,0.00,,---,0.00,VWS V14.00,2013-05-25 19:59:00,
2013-05-25 16:04:00,66.0,37.6,30.30,NW,315,0.9,2.7,35,0.00,,---,0.00,VWS V14.00,2013-05-25 20:04:00,
2013-05-25 16:09:00,65.8,37.5,30.30,ENE,68,1.3,2.7,35,0.00,,---,0.00,VWS V14.00,2013-05-25 20:09:00,
2013-05-25 16:14:00,65.8,37.5,30.30,North,0,1.3,1.3,35,0.00,,---,0.00,VWS V14.00,2013-05-25 20:14:00,
2013-05-25 16:19:00,66.2,37.8,30.30,ESE,112,0.0,0.0,35,0.00,,---,0.00,VWS V14.00,2013-05-25 20:19:00,
2013-05-25 16:24:00,66.4,37.9,30.30,NW,315,0.0,2.0,35,0.00,,---,0.00,VWS V14.00,2013-05-25 20:24:00,
2013-05-25 16:29:00,66.6,38.1,30.27,NNE,22,2.9,2.9,35,0.00,,---,0.00,VWS V14.00,2013-05-25 20:29:00,
2013-05-25 16:34:00,65.5,36.4,30.27,ENE,68,1.6,1.6,34,0.00,,---,0.00,VWS V14.00,2013-05-25 20:34:00,
2013-05-25 16:39:00,65.5,37.1,30.27,SE,135,2.0,2.0,35,0.00,,---,0.00,VWS V14.00,2013-05-25 20:39:00,
2013-05-25 16:45:00,65.3,37.0,30.24,NE,45,1.3,1.3,35,0.00,,---,0.00,VWS V14.00,2013-05-25 20:45:00,
2013-05-25 16:50:00,65.1,36.1,30.24,ENE,68,0.0,1.3,34,0.00,,---,0.00,VWS V14.00,2013-05-25 20:50:00,
2013-05-25 16:55:00,65.1,36.8,30.24,ENE,68,0.0,1.1,35,0.00,,---,0.00,VWS V14.00,2013-05-25 20:55:00,
2013-05-25 17:00:00,65.1,36.8,30.24,ESE,112,0.0,1.6,35,0.00,,---,0.00,VWS V14.00,2013-05-25 21:00:00,
2013-05-25 17:05:00,64.9,36.7,30.24,North,0,1.1,1.3,35,0.00,,---,0.00,VWS V14.00,2013-05-25 21:05:00,
2013-05-25 17:10:00,65.1,36.8,30.24,WNW,292,0.0,0.0,35,0.00,,---,0.00,VWS V14.00,2013-05-25 21:10:00,
2013-05-25 17:15:00,65.1,36.8,30.24,NE,45,0.0,1.1,35,0.00,,---,0.00,VWS V14.00,2013-05-25 21:15:00,
2013-05-25 17:20:00,64.8,36.5,30.24,SE,135,2.2,2.5,35,0.00,,---,0.00,VWS V14.00,2013-05-25 21:20:00,
2013-05-25 17:25:00,64.6,36.3,30.24,North,0,0.0,0.9,35,0.00,,---,0.00,VWS V14.00,2013-05-25 21:25:00,
2013-05-25 17:30:00,64.6,36.3,30.24,North,0,2.0,2.0,35,0.00,,---,0.00,VWS V14.00,2013-05-25 21:30:00,
2013-05-25 17:35:00,64.4,36.2,30.24,SSE,158,0.0,0.9,35,0.00,,---,0.00,VWS V14.00,2013-05-25 21:35:00,
2013-05-25 17:40:00,64.2,36.0,30.24,ENE,68,0.9,1.6,35,0.00,,---,0.00,VWS V14.00,2013-05-25 21:40:00,
2013-05-25 17:45:00,64.0,35.9,30.21,SSE,158,0.0,0.0,35,0.00,,---,0.00,VWS V14.00,2013-05-25 21:45:00,
2013-05-25 17:50:00,64.2,36.0,30.21,South,180,1.1,1.6,35,0.00,,---,0.00,VWS V14.00,2013-05-25 21:50:00,
2013-05-25 17:55:00,64.2,36.7,30.21,SW,225,0.0,1.1,36,0.00,,---,0.00,VWS V14.00,2013-05-25 21:55:00,
2013-05-25 18:00:00,64.0,36.6,30.24,NE,45,1.3,1.3,36,0.00,,---,0.00,VWS V14.00,2013-05-25 22:00:00,
2013-05-25 18:05:00,64.0,36.6,30.24,South,180,1.3,2.5,36,0.00,,---,0.00,VWS V14.00,2013-05-25 22:05:00,
2013-05-25 18:10:00,64.2,36.7,30.24,SSE,158,1.6,1.6,36,0.00,,---,0.00,VWS V14.00,2013-05-25 22:10:00,
2013-05-25 18:15:00,64.4,36.9,30.24,ESE,112,0.9,1.1,36,0.00,,---,0.00,VWS V14.00,2013-05-25 22:15:00,
2013-05-25 18:21:00,64.2,36.7,30.24,South,180,1.1,1.1,36,0.00,,---,0.00,VWS V14.00,2013-05-25 22:21:00,
2013-05-25 18:26:00,64.0,36.6,30.24,South,180,1.3,1.3,36,0.00,,---,0.00,VWS V14.00,2013-05-25 22:26:00,
2013-05-25 18:31:00,64.2,36.7,30.24,East,90,0.0,1.3,36,0.00,,---,0.00,VWS V14.00,2013-05-25 22:31:00,
2013-05-25 18:36:00,64.0,36.6,30.24,East,90,0.0,0.0,36,0.00,,---,0.00,VWS V14.00,2013-05-25 22:36:00,
2013-05-25 18:41:00,63.9,36.4,30.24,NNE,22,2.9,2.9,36,0.00,,---,0.00,VWS V14.00,2013-05-25 22:41:00,
2013-05-25 18:46:00,64.0,36.6,30.24,South,180,0.0,0.0,36,0.00,,---,0.00,VWS V14.00,2013-05-25 22:46:00,
2013-05-25 18:51:00,64.0,36.6,30.24,WSW,248,0.0,0.9,36,0.00,,---,0.00,VWS V14.00,2013-05-25 22:51:00,
2013-05-25 18:56:00,64.0,36.6,30.24,South,180,0.0,0.0,36,0.00,,---,0.00,VWS V14.00,2013-05-25 22:56:00,
2013-05-25 19:01:00,63.7,35.5,30.24,North,0,0.0,0.0,35,0.00,,---,0.00,VWS V14.00,2013-05-25 23:01:00,
2013-05-25 19:06:00,63.7,35.5,30.24,NNW,338,1.3,1.3,35,0.00,,---,0.00,VWS V14.00,2013-05-25 23:06:00,
2013-05-25 19:13:00,63.1,35.1,30.24,SSE,158,0.0,0.0,35,0.00,,---,0.00,VWS V14.00,2013-05-25 23:13:00,
2013-05-25 19:19:00,63.1,35.8,30.24,NW,315,0.0,0.0,36,0.00,,---,0.00,VWS V14.00,2013-05-25 23:19:00,
2013-05-25 19:25:00,63.0,35.6,30.24,NNE,22,0.0,0.0,36,0.00,,---,0.00,VWS V14.00,2013-05-25 23:25:00,
2013-05-25 19:30:00,62.8,36.2,30.24,NE,45,2.2,2.2,37,0.00,,---,0.00,VWS V14.00,2013-05-25 23:30:00,
2013-05-25 19:35:00,62.6,36.0,30.24,NW,315,0.0,1.1,37,0.00,,---,0.00,VWS V14.00,2013-05-25 23:35:00,
2013-05-25 19:40:00,62.2,35.7,30.24,WSW,248,0.0,0.0,37,0.00,,---,0.00,VWS V14.00,2013-05-25 23:40:00,
2013-05-25 19:45:00,62.1,35.5,30.24,NNW,338,1.1,1.6,37,0.00,,---,0.00,VWS V14.00,2013-05-25 23:45:00,
2013-05-25 19:50:00,61.9,35.3,30.24,NNE,22,0.0,1.3,37,0.00,,---,0.00,VWS V14.00,2013-05-25 23:50:00,
2013-05-25 19:55:00,61.7,35.2,30.24,ENE,68,0.0,0.0,37,0.00,,---,0.00,VWS V14.00,2013-05-25 23:55:00,
2013-05-25 20:00:00,61.5,35.7,30.24,SW,225,0.0,1.1,38,0.00,,---,0.00,VWS V14.00,2013-05-26 00:00:00,
2013-05-25 20:05:00,61.3,35.5,30.24,NNW,338,0.0,0.0,38,0.00,,---,0.00,VWS V14.00,2013-05-26 00:05:00,
2013-05-25 20:10:00,61.0,35.2,30.24,NE,45,0.0,0.0,38,0.00,,---,0.00,VWS V14.00,2013-05-26 00:10:00,
2013-05-25 20:15:00,60.8,35.7,30.24,North,0,0.9,1.6,39,0.00,,---,0.00,VWS V14.00,2013-05-26 00:15:00,
2013-05-25 20:20:00,60.6,36.2,30.24,North,0,0.0,0.0,40,0.00,,---,0.00,VWS V14.00,2013-05-26 00:20:00,
2013-05-25 20:25:00,60.4,36.0,30.24,North,0,0.0,0.0,40,0.00,,---,0.00,VWS V14.00,2013-05-26 00:25:00,
2013-05-25 20:31:00,60.1,35.7,30.24,NNE,22,0.0,0.0,40,0.00,,---,0.00,VWS V14.00,2013-05-26 00:31:00,
2013-05-25 20:36:00,59.9,36.2,30.24,NNE,22,0.0,0.0,41,0.00,,---,0.00,VWS V14.00,2013-05-26 00:36:00,
2013-05-25 20:41:00,59.5,37.0,30.24,NNE,22,0.0,0.0,43,0.00,,---,0.00,VWS V14.00,2013-05-26 00:41:00,
2013-05-25 20:46:00,59.2,36.7,30.21,NNE,22,0.0,0.0,43,0.00,,---,0.00,VWS V14.00,2013-05-26 00:46:00,
2013-05-25 20:51:00,59.0,37.1,30.21,NNE,22,0.0,0.0,44,0.00,,---,0.00,VWS V14.00,2013-05-26 00:51:00,
2013-05-25 20:56:00,58.5,37.2,30.21,NNE,22,0.0,0.0,45,0.00,,---,0.00,VWS V14.00,2013-05-26 00:56:00,
2013-05-25 21:01:00,58.1,36.9,30.24,NNE,22,0.0,0.0,45,0.00,,---,0.00,VWS V14.00,2013-05-26 01:01:00,
2013-05-25 21:06:00,57.7,36.6,30.24,NNE,22,0.0,0.0,45,0.00,,---,0.00,VWS V14.00,2013-05-26 01:06:00,
2013-05-25 21:11:00,57.4,36.8,30.24,NNE,22,0.0,0.0,46,0.00,,---,0.00,VWS V14.00,2013-05-26 01:11:00,
2013-05-25 21:16:00,56.8,36.3,30.24,NNE,22,0.0,0.0,46,0.00,,---,0.00,VWS V14.00,2013-05-26 01:16:00,
2013-05-25 21:21:00,56.5,36.5,30.24,NNE,22,0.0,0.0,47,0.00,,---,0.00,VWS V14.00,2013-05-26 01:21:00,
2013-05-25 21:26:00,56.3,36.9,30.24,NNE,22,0.0,0.0,48,0.00,,---,0.00,VWS V14.00,2013-05-26 01:26:00,
2013-05-25 21:31:00,55.9,36.5,30.24,NNE,22,0.0,0.0,48,0.00,,---,0.00,VWS V14.00,2013-05-26 01:31:00,
2013-05-25 21:36:00,55.6,36.7,30.24,NNE,22,0.0,0.0,49,0.00,,---,0.00,VWS V14.00,2013-05-26 01:36:00,
2013-05-25 21:41:00,55.2,36.9,30.24,NNE,22,0.0,0.0,50,0.00,,---,0.00,VWS V14.00,2013-05-26 01:41:00,
2013-05-25 21:47:00,54.9,36.6,30.24,NNE,22,0.0,0.0,50,0.00,,---,0.00,VWS V14.00,2013-05-26 01:47:00,
2013-05-25 21:52:00,54.5,36.8,30.24,NNE,22,0.0,0.0,51,0.00,,---,0.00,VWS V14.00,2013-05-26 01:52:00,
2013-05-25 21:57:00,54.3,37.1,30.24,NNE,22,0.0,0.0,52,0.00,,---,0.00,VWS V14.00,2013-05-26 01:57:00,
2013-05-25 22:02:00,54.0,36.8,30.24,NNE,22,0.0,0.0,52,0.00,,---,0.00,VWS V14.00,2013-05-26 02:02:00,
2013-05-25 22:07:00,53.6,36.4,30.24,NNE,22,0.0,0.0,52,0.00,,---,0.00,VWS V14.00,2013-05-26 02:07:00,
2013-05-25 22:12:00,53.4,36.7,30.24,NNE,22,0.0,0.0,53,0.00,,---,0.00,VWS V14.00,2013-05-26 02:12:00,
2013-05-25 22:17:00,53.2,37.0,30.24,NNE,22,0.0,0.0,54,0.00,,---,0.00,VWS V14.00,2013-05-26 02:17:00,
2013-05-25 22:22:00,53.1,36.9,30.24,NNE,22,0.0,0.0,54,0.00,,---,0.00,VWS V14.00,2013-05-26 02:22:00,
2013-05-25 22:27:00,53.1,36.9,30.24,NNE,22,0.0,0.0,54,0.00,,---,0.00,VWS V14.00,2013-05-26 02:27:00,
2013-05-25 22:32:00,53.1,37.8,30.24,NNE,22,0.0,0.0,56,0.00,,---,0.00,VWS V14.00,2013-05-26 02:32:00,
2013-05-25 22:38:00,52.9,37.6,30.24,North,0,0.0,0.0,56,0.00,,---,0.00,VWS V14.00,2013-05-26 02:38:00,
2013-05-25 22:43:00,52.9,37.6,30.27,North,0,0.0,0.0,56,0.00,,---,0.00,VWS V14.00,2013-05-26 02:43:00,
2013-05-25 22:48:00,52.9,37.6,30.27,North,0,0.0,0.0,56,0.00,,---,0.00,VWS V14.00,2013-05-26 02:48:00,
2013-05-25 22:53:00,52.9,37.6,30.27,North,0,0.0,0.0,56,0.00,,---,0.00,VWS V14.00,2013-05-26 02:53:00,
2013-05-25 22:58:00,53.1,37.8,30.27,NNW,338,0.0,0.0,56,0.00,,---,0.00,VWS V14.00,2013-05-26 02:58:00,
2013-05-25 23:03:00,53.2,38.0,30.27,NNW,338,0.0,0.0,56,0.00,,---,0.00,VWS V14.00,2013-05-26 03:03:00,
2013-05-25 23:08:00,53.1,38.2,30.27,NNW,338,0.0,0.0,57,0.00,,---,0.00,VWS V14.00,2013-05-26 03:08:00,
2013-05-25 23:13:00,53.1,38.2,30.30,NNW,338,0.0,0.0,57,0.00,,---,0.00,VWS V14.00,2013-05-26 03:13:00,
2013-05-25 23:18:00,52.9,38.5,30.30,NNW,338,0.0,0.0,58,0.00,,---,0.00,VWS V14.00,2013-05-26 03:18:00,
2013-05-25 23:24:00,52.9,38.5,30.30,NNW,338,0.0,0.0,58,0.00,,---,0.00,VWS V14.00,2013-05-26 03:24:00,
2013-05-25 23:29:00,52.7,38.3,30.30,NNW,338,0.0,0.0,58,0.00,,---,0.00,VWS V14.00,2013-05-26 03:29:00,
2013-05-25 23:34:00,52.5,38.2,30.30,NNW,338,0.0,0.0,58,0.00,,---,0.00,VWS V14.00,2013-05-26 03:34:00,
2013-05-25 23:39:00,52.3,38.5,30.30,NNW,338,0.0,0.0,59,0.00,,---,0.00,VWS V14.00,2013-05-26 03:39:00,
2013-05-25 23:44:00,52.0,38.1,30.33,NNW,338,0.0,0.0,59,0.00,,---,0.00,VWS V14.00,2013-05-26 03:44:00,
2013-05-25 23:49:00,51.8,37.9,30.33,NNW,338,0.0,0.0,59,0.00,,---,0.00,VWS V14.00,2013-05-26 03:49:00,
2013-05-25 23:54:00,51.6,38.2,30.33,NNW,338,0.0,0.0,60,0.00,,---,0.00,VWS V14.00,2013-05-26 03:54:00,
2013-05-25 23:59:00,51.4,38.5,30.30,NNW,338,0.0,0.0,61,0.00,,---,0.00,VWS V14.00,2013-05-26 03:59:00,